sensor_id;sensor_type;location;lat;lon;timestamp;P1;durP1;ratioP1;P2;durP2;ratioP2
63555;SDS011;49700;48.072;7.800;2023-04-12T00:02:22;4.17;;;1.83;;
63555;SDS011;49700;48.072;7.800;2023-04-12T00:04:48;2.00;;;1.53;;
63555;SDS011;49700;48.072;7.800;2023-04-12T00:07:20;1.85;;;1.38;;
63555;SDS011;49700;48.072;7.800;2023-04-12T00:09:47;2.00;;;1.52;;
63555;SDS011;49700;48.072;7.800;2023-04-12T00:12:12;1.50;;;1.27;;
63555;SDS011;49700;48.072;7.800;2023-04-12T00:14:38;1.70;;;1.40;;
63555;SDS011;49700;48.072;7.800;2023-04-12T00:17:03;2.10;;;1.43;;
63555;SDS011;49700;48.072;7.800;2023-04-12T00:19:28;2.40;;;1.00;;
63555;SDS011;49700;48.072;7.800;2023-04-12T00:21:55;1.75;;;1.65;;
63555;SDS011;49700;48.072;7.800;2023-04-12T00:24:20;1.70;;;1.60;;
63555;SDS011;49700;48.072;7.800;2023-04-12T00:26:46;1.83;;;1.57;;
63555;SDS011;49700;48.072;7.800;2023-04-12T00:29:11;2.37;;;1.37;;
63555;SDS011;49700;48.072;7.800;2023-04-12T00:31:37;3.47;;;1.30;;
63555;SDS011;49700;48.072;7.800;2023-04-12T00:34:02;1.30;;;1.20;;
63555;SDS011;49700;48.072;7.800;2023-04-12T00:36:28;3.70;;;2.33;;
63555;SDS011;49700;48.072;7.800;2023-04-12T00:38:53;1.60;;;1.40;;
63555;SDS011;49700;48.072;7.800;2023-04-12T00:41:18;2.30;;;1.27;;
63555;SDS011;49700;48.072;7.800;2023-04-12T00:43:45;2.95;;;1.50;;
63555;SDS011;49700;48.072;7.800;2023-04-12T00:46:11;2.08;;;1.30;;
63555;SDS011;49700;48.072;7.800;2023-04-12T00:48:36;2.00;;;1.47;;
63555;SDS011;49700;48.072;7.800;2023-04-12T00:51:05;2.05;;;1.40;;
63555;SDS011;49700;48.072;7.800;2023-04-12T00:53:31;8.95;;;2.03;;
63555;SDS011;49700;48.072;7.800;2023-04-12T00:55:57;2.38;;;1.88;;
63555;SDS011;49700;48.072;7.800;2023-04-12T00:58:23;2.70;;;1.27;;
63555;SDS011;49700;48.072;7.800;2023-04-12T01:00:49;3.83;;;1.70;;
63555;SDS011;49700;48.072;7.800;2023-04-12T01:03:20;1.70;;;1.55;;
63555;SDS011;49700;48.072;7.800;2023-04-12T01:06:15;3.10;;;1.60;;
63555;SDS011;49700;48.072;7.800;2023-04-12T01:09:03;1.50;;;1.15;;
63555;SDS011;49700;48.072;7.800;2023-04-12T01:12:04;1.38;;;1.27;;
63555;SDS011;49700;48.072;7.800;2023-04-12T01:17:20;1.70;;;1.30;;
63555;SDS011;49700;48.072;7.800;2023-04-12T01:20:03;3.20;;;1.20;;
63555;SDS011;49700;48.072;7.800;2023-04-12T01:28:03;3.85;;;1.80;;
63555;SDS011;49700;48.072;7.800;2023-04-12T01:30:30;3.40;;;1.85;;
63555;SDS011;49700;48.072;7.800;2023-04-12T01:32:58;5.47;;;1.70;;
63555;SDS011;49700;48.072;7.800;2023-04-12T01:35:27;4.88;;;2.13;;
63555;SDS011;49700;48.072;7.800;2023-04-12T01:37:55;3.05;;;1.25;;
63555;SDS011;49700;48.072;7.800;2023-04-12T01:40:22;1.98;;;1.27;;
63555;SDS011;49700;48.072;7.800;2023-04-12T01:42:50;1.63;;;1.35;;
63555;SDS011;49700;48.072;7.800;2023-04-12T01:45:15;1.50;;;1.40;;
63555;SDS011;49700;48.072;7.800;2023-04-12T01:47:41;1.27;;;1.17;;
63555;SDS011;49700;48.072;7.800;2023-04-12T01:50:22;1.90;;;1.27;;
63555;SDS011;49700;48.072;7.800;2023-04-12T01:53:17;4.45;;;1.52;;
63555;SDS011;49700;48.072;7.800;2023-04-12T01:55:46;2.65;;;2.05;;
63555;SDS011;49700;48.072;7.800;2023-04-12T01:58:13;1.13;;;1.02;;
63555;SDS011;49700;48.072;7.800;2023-04-12T02:00:49;1.42;;;1.33;;
63555;SDS011;49700;48.072;7.800;2023-04-12T02:03:19;1.40;;;1.30;;
63555;SDS011;49700;48.072;7.800;2023-04-12T02:05:49;1.30;;;1.20;;
63555;SDS011;49700;48.072;7.800;2023-04-12T02:08:19;1.30;;;1.20;;
63555;SDS011;49700;48.072;7.800;2023-04-12T02:10:50;1.50;;;1.40;;
63555;SDS011;49700;48.072;7.800;2023-04-12T02:13:19;1.35;;;1.25;;
63555;SDS011;49700;48.072;7.800;2023-04-12T02:15:44;1.43;;;1.20;;
63555;SDS011;49700;48.072;7.800;2023-04-12T02:18:10;2.50;;;1.40;;
63555;SDS011;49700;48.072;7.800;2023-04-12T02:20:37;2.75;;;1.30;;
63555;SDS011;49700;48.072;7.800;2023-04-12T02:23:03;3.63;;;1.80;;
63555;SDS011;49700;48.072;7.800;2023-04-12T02:25:31;1.33;;;1.20;;
63555;SDS011;49700;48.072;7.800;2023-04-12T02:28:02;2.38;;;1.48;;
63555;SDS011;49700;48.072;7.800;2023-04-12T02:30:27;4.70;;;1.90;;
63555;SDS011;49700;48.072;7.800;2023-04-12T02:32:53;1.40;;;1.30;;
63555;SDS011;49700;48.072;7.800;2023-04-12T02:35:26;1.73;;;1.50;;
63555;SDS011;49700;48.072;7.800;2023-04-12T02:38:05;3.65;;;1.27;;
63555;SDS011;49700;48.072;7.800;2023-04-12T02:40:37;2.05;;;1.42;;
63555;SDS011;49700;48.072;7.800;2023-04-12T02:43:11;2.10;;;1.25;;
63555;SDS011;49700;48.072;7.800;2023-04-12T02:45:41;2.78;;;1.80;;
63555;SDS011;49700;48.072;7.800;2023-04-12T02:48:08;3.00;;;1.77;;
63555;SDS011;49700;48.072;7.800;2023-04-12T02:50:34;6.10;;;3.60;;
63555;SDS011;49700;48.072;7.800;2023-04-12T02:53:14;3.65;;;1.65;;
63555;SDS011;49700;48.072;7.800;2023-04-12T02:55:42;2.53;;;1.90;;
63555;SDS011;49700;48.072;7.800;2023-04-12T02:58:09;5.15;;;1.40;;
63555;SDS011;49700;48.072;7.800;2023-04-12T03:00:41;2.80;;;1.67;;
63555;SDS011;49700;48.072;7.800;2023-04-12T03:03:10;2.80;;;1.77;;
63555;SDS011;49700;48.072;7.800;2023-04-12T03:05:57;4.57;;;2.00;;
63555;SDS011;49700;48.072;7.800;2023-04-12T03:08:23;3.28;;;1.60;;
63555;SDS011;49700;48.072;7.800;2023-04-12T03:10:56;2.83;;;1.42;;
63555;SDS011;49700;48.072;7.800;2023-04-12T03:13:23;2.55;;;1.40;;
63555;SDS011;49700;48.072;7.800;2023-04-12T03:15:53;1.65;;;1.50;;
63555;SDS011;49700;48.072;7.800;2023-04-12T03:18:30;1.30;;;1.20;;
63555;SDS011;49700;48.072;7.800;2023-04-12T03:20:55;2.43;;;1.47;;
63555;SDS011;49700;48.072;7.800;2023-04-12T03:23:21;2.50;;;1.47;;
63555;SDS011;49700;48.072;7.800;2023-04-12T03:25:54;2.10;;;1.30;;
63555;SDS011;49700;48.072;7.800;2023-04-12T03:28:29;1.83;;;1.65;;
63555;SDS011;49700;48.072;7.800;2023-04-12T03:30:55;2.00;;;1.05;;
63555;SDS011;49700;48.072;7.800;2023-04-12T03:33:34;1.52;;;1.38;;
63555;SDS011;49700;48.072;7.800;2023-04-12T03:36:04;2.25;;;1.30;;
63555;SDS011;49700;48.072;7.800;2023-04-12T03:38:30;4.30;;;1.48;;
63555;SDS011;49700;48.072;7.800;2023-04-12T03:40:56;2.13;;;1.58;;
63555;SDS011;49700;48.072;7.800;2023-04-12T03:43:28;5.45;;;2.10;;
63555;SDS011;49700;48.072;7.800;2023-04-12T03:46:01;3.33;;;2.17;;
63555;SDS011;49700;48.072;7.800;2023-04-12T03:48:28;9.00;;;2.20;;
63555;SDS011;49700;48.072;7.800;2023-04-12T03:50:53;2.40;;;2.00;;
63555;SDS011;49700;48.072;7.800;2023-04-12T03:53:21;2.35;;;1.77;;
63555;SDS011;49700;48.072;7.800;2023-04-12T03:55:47;3.17;;;1.60;;
63555;SDS011;49700;48.072;7.800;2023-04-12T03:58:13;3.90;;;1.73;;
63555;SDS011;49700;48.072;7.800;2023-04-12T04:00:42;1.95;;;1.42;;
63555;SDS011;49700;48.072;7.800;2023-04-12T04:03:08;3.10;;;1.92;;
63555;SDS011;49700;48.072;7.800;2023-04-12T04:05:43;3.42;;;1.80;;
63555;SDS011;49700;48.072;7.800;2023-04-12T04:08:10;2.72;;;1.70;;
63555;SDS011;49700;48.072;7.800;2023-04-12T04:10:51;4.53;;;1.95;;
63555;SDS011;49700;48.072;7.800;2023-04-12T04:13:19;2.20;;;1.70;;
63555;SDS011;49700;48.072;7.800;2023-04-12T04:15:45;3.17;;;1.77;;
63555;SDS011;49700;48.072;7.800;2023-04-12T04:18:11;3.45;;;3.05;;
63555;SDS011;49700;48.072;7.800;2023-04-12T04:20:36;3.80;;;2.33;;
63555;SDS011;49700;48.072;7.800;2023-04-12T04:23:02;3.80;;;2.00;;
63555;SDS011;49700;48.072;7.800;2023-04-12T04:25:28;2.23;;;1.70;;
63555;SDS011;49700;48.072;7.800;2023-04-12T04:28:01;2.97;;;1.75;;
63555;SDS011;49700;48.072;7.800;2023-04-12T04:30:28;3.92;;;1.90;;
63555;SDS011;49700;48.072;7.800;2023-04-12T04:32:54;2.90;;;1.80;;
63555;SDS011;49700;48.072;7.800;2023-04-12T04:35:21;4.70;;;2.00;;
63555;SDS011;49700;48.072;7.800;2023-04-12T04:38:17;2.33;;;1.88;;
63555;SDS011;49700;48.072;7.800;2023-04-12T04:40:44;3.05;;;1.88;;
63555;SDS011;49700;48.072;7.800;2023-04-12T04:43:12;1.80;;;1.70;;
63555;SDS011;49700;48.072;7.800;2023-04-12T04:45:39;2.50;;;2.10;;
63555;SDS011;49700;48.072;7.800;2023-04-12T04:48:05;2.67;;;2.40;;
63555;SDS011;49700;48.072;7.800;2023-04-12T04:50:30;4.07;;;2.27;;
63555;SDS011;49700;48.072;7.800;2023-04-12T04:52:56;4.10;;;1.80;;
63555;SDS011;49700;48.072;7.800;2023-04-12T04:55:22;8.30;;;2.00;;
63555;SDS011;49700;48.072;7.800;2023-04-12T04:57:51;4.22;;;2.80;;
63555;SDS011;49700;48.072;7.800;2023-04-12T05:00:17;4.35;;;2.38;;
63555;SDS011;49700;48.072;7.800;2023-04-12T05:02:49;2.83;;;2.00;;
63555;SDS011;49700;48.072;7.800;2023-04-12T05:05:22;1.77;;;1.60;;
63555;SDS011;49700;48.072;7.800;2023-04-12T05:07:49;5.88;;;5.30;;
63555;SDS011;49700;48.072;7.800;2023-04-12T05:10:15;5.80;;;4.60;;
63555;SDS011;49700;48.072;7.800;2023-04-12T05:12:42;3.00;;;1.95;;
63555;SDS011;49700;48.072;7.800;2023-04-12T05:15:09;6.50;;;2.28;;
63555;SDS011;49700;48.072;7.800;2023-04-12T05:17:34;3.13;;;2.00;;
63555;SDS011;49700;48.072;7.800;2023-04-12T05:20:00;6.07;;;2.57;;
63555;SDS011;49700;48.072;7.800;2023-04-12T05:22:26;2.20;;;1.80;;
63555;SDS011;49700;48.072;7.800;2023-04-12T05:24:53;3.75;;;2.60;;
63555;SDS011;49700;48.072;7.800;2023-04-12T05:27:20;7.47;;;2.30;;
63555;SDS011;49700;48.072;7.800;2023-04-12T05:29:46;5.05;;;2.72;;
63555;SDS011;49700;48.072;7.800;2023-04-12T05:32:14;4.90;;;2.25;;
63555;SDS011;49700;48.072;7.800;2023-04-12T05:34:39;2.67;;;2.20;;
63555;SDS011;49700;48.072;7.800;2023-04-12T05:37:06;3.42;;;2.40;;
63555;SDS011;49700;48.072;7.800;2023-04-12T05:39:35;2.78;;;1.67;;
63555;SDS011;49700;48.072;7.800;2023-04-12T05:42:01;2.73;;;1.97;;
63555;SDS011;49700;48.072;7.800;2023-04-12T05:44:27;2.63;;;1.90;;
63555;SDS011;49700;48.072;7.800;2023-04-12T05:46:52;2.47;;;2.17;;
63555;SDS011;49700;48.072;7.800;2023-04-12T05:49:18;5.30;;;3.90;;
63555;SDS011;49700;48.072;7.800;2023-04-12T05:51:43;4.30;;;3.00;;
63555;SDS011;49700;48.072;7.800;2023-04-12T05:54:17;3.22;;;2.92;;
63555;SDS011;49700;48.072;7.800;2023-04-12T05:56:46;2.42;;;1.95;;
63555;SDS011;49700;48.072;7.800;2023-04-12T05:59:11;4.67;;;2.63;;
63555;SDS011;49700;48.072;7.800;2023-04-12T06:01:37;5.32;;;4.93;;
63555;SDS011;49700;48.072;7.800;2023-04-12T06:04:06;3.55;;;2.47;;
63555;SDS011;49700;48.072;7.800;2023-04-12T06:06:32;2.57;;;2.10;;
63555;SDS011;49700;48.072;7.800;2023-04-12T06:08:58;6.03;;;2.30;;
63555;SDS011;49700;48.072;7.800;2023-04-12T06:11:27;3.55;;;3.25;;
63555;SDS011;49700;48.072;7.800;2023-04-12T06:13:53;3.45;;;2.60;;
63555;SDS011;49700;48.072;7.800;2023-04-12T06:16:19;4.88;;;2.90;;
63555;SDS011;49700;48.072;7.800;2023-04-12T06:18:45;3.80;;;2.87;;
63555;SDS011;49700;48.072;7.800;2023-04-12T06:21:11;5.83;;;2.77;;
63555;SDS011;49700;48.072;7.800;2023-04-12T06:23:38;3.17;;;2.90;;
63555;SDS011;49700;48.072;7.800;2023-04-12T06:26:03;2.63;;;2.43;;
63555;SDS011;49700;48.072;7.800;2023-04-12T06:28:29;3.30;;;3.00;;
63555;SDS011;49700;48.072;7.800;2023-04-12T06:30:55;5.43;;;3.03;;
63555;SDS011;49700;48.072;7.800;2023-04-12T06:33:20;3.40;;;2.90;;
63555;SDS011;49700;48.072;7.800;2023-04-12T06:35:47;5.30;;;3.92;;
63555;SDS011;49700;48.072;7.800;2023-04-12T06:38:13;3.10;;;2.80;;
63555;SDS011;49700;48.072;7.800;2023-04-12T06:40:38;3.63;;;2.90;;
63555;SDS011;49700;48.072;7.800;2023-04-12T06:43:04;7.77;;;3.07;;
63555;SDS011;49700;48.072;7.800;2023-04-12T06:45:29;3.00;;;2.77;;
63555;SDS011;49700;48.072;7.800;2023-04-12T06:47:55;3.73;;;2.47;;
63555;SDS011;49700;48.072;7.800;2023-04-12T06:50:21;5.93;;;2.90;;
63555;SDS011;49700;48.072;7.800;2023-04-12T06:52:46;4.17;;;2.70;;
63555;SDS011;49700;48.072;7.800;2023-04-12T06:55:13;3.33;;;2.87;;
63555;SDS011;49700;48.072;7.800;2023-04-12T06:57:40;5.00;;;3.78;;
63555;SDS011;49700;48.072;7.800;2023-04-12T07:00:07;3.53;;;2.20;;
63555;SDS011;49700;48.072;7.800;2023-04-12T07:02:33;2.90;;;2.58;;
63555;SDS011;49700;48.072;7.800;2023-04-12T07:04:58;3.20;;;2.90;;
63555;SDS011;49700;48.072;7.800;2023-04-12T07:07:24;4.97;;;2.90;;
63555;SDS011;49700;48.072;7.800;2023-04-12T07:09:49;3.57;;;2.73;;
63555;SDS011;49700;48.072;7.800;2023-04-12T07:12:16;2.50;;;2.30;;
63555;SDS011;49700;48.072;7.800;2023-04-12T07:14:42;2.73;;;2.50;;
63555;SDS011;49700;48.072;7.800;2023-04-12T07:17:07;2.90;;;1.80;;
63555;SDS011;49700;48.072;7.800;2023-04-12T07:19:32;4.13;;;2.40;;
63555;SDS011;49700;48.072;7.800;2023-04-12T07:21:58;2.90;;;2.50;;
63555;SDS011;49700;48.072;7.800;2023-04-12T07:24:23;2.33;;;2.13;;
63555;SDS011;49700;48.072;7.800;2023-04-12T07:26:51;4.17;;;2.50;;
63555;SDS011;49700;48.072;7.800;2023-04-12T07:29:17;4.70;;;2.97;;
63555;SDS011;49700;48.072;7.800;2023-04-12T07:31:43;6.20;;;3.40;;
63555;SDS011;49700;48.072;7.800;2023-04-12T07:34:08;4.17;;;2.83;;
63555;SDS011;49700;48.072;7.800;2023-04-12T07:36:34;4.40;;;2.57;;
63555;SDS011;49700;48.072;7.800;2023-04-12T07:38:59;2.40;;;2.20;;
63555;SDS011;49700;48.072;7.800;2023-04-12T07:41:24;3.90;;;2.20;;
63555;SDS011;49700;48.072;7.800;2023-04-12T07:43:50;5.87;;;3.03;;
63555;SDS011;49700;48.072;7.800;2023-04-12T07:46:15;3.70;;;2.80;;
63555;SDS011;49700;48.072;7.800;2023-04-12T07:48:41;2.87;;;2.33;;
63555;SDS011;49700;48.072;7.800;2023-04-12T07:51:07;3.60;;;2.78;;
63555;SDS011;49700;48.072;7.800;2023-04-12T07:53:33;3.80;;;2.50;;
63555;SDS011;49700;48.072;7.800;2023-04-12T07:55:58;3.17;;;2.93;;
63555;SDS011;49700;48.072;7.800;2023-04-12T07:58:24;9.10;;;4.67;;
63555;SDS011;49700;48.072;7.800;2023-04-12T08:00:49;5.70;;;3.87;;
63555;SDS011;49700;48.072;7.800;2023-04-12T08:03:16;5.05;;;3.08;;
63555;SDS011;49700;48.072;7.800;2023-04-12T08:05:42;2.97;;;2.42;;
63555;SDS011;49700;48.072;7.800;2023-04-12T08:08:09;2.55;;;1.58;;
63555;SDS011;49700;48.072;7.800;2023-04-12T08:10:35;3.55;;;2.00;;
63555;SDS011;49700;48.072;7.800;2023-04-12T08:13:01;2.20;;;1.25;;
63555;SDS011;49700;48.072;7.800;2023-04-12T08:15:28;2.70;;;1.80;;
63555;SDS011;49700;48.072;7.800;2023-04-12T08:17:53;2.60;;;1.67;;
63555;SDS011;49700;48.072;7.800;2023-04-12T08:20:18;2.10;;;1.90;;
63555;SDS011;49700;48.072;7.800;2023-04-12T08:22:44;1.83;;;1.33;;
63555;SDS011;49700;48.072;7.800;2023-04-12T08:25:10;1.52;;;1.42;;
63555;SDS011;49700;48.072;7.800;2023-04-12T08:27:38;4.20;;;2.03;;
63555;SDS011;49700;48.072;7.800;2023-04-12T08:30:05;3.88;;;2.05;;
63555;SDS011;49700;48.072;7.800;2023-04-12T08:32:31;2.00;;;1.60;;
63555;SDS011;49700;48.072;7.800;2023-04-12T08:34:56;6.80;;;2.17;;
63555;SDS011;49700;48.072;7.800;2023-04-12T08:37:22;2.50;;;2.10;;
63555;SDS011;49700;48.072;7.800;2023-04-12T08:39:47;3.63;;;1.83;;
63555;SDS011;49700;48.072;7.800;2023-04-12T08:42:13;3.13;;;1.67;;
63555;SDS011;49700;48.072;7.800;2023-04-12T08:44:40;2.17;;;1.63;;
63555;SDS011;49700;48.072;7.800;2023-04-12T08:47:07;4.10;;;2.50;;
63555;SDS011;49700;48.072;7.800;2023-04-12T08:49:34;2.00;;;1.60;;
63555;SDS011;49700;48.072;7.800;2023-04-12T08:52:01;1.77;;;1.60;;
63555;SDS011;49700;48.072;7.800;2023-04-12T08:54:30;4.07;;;1.35;;
63555;SDS011;49700;48.072;7.800;2023-04-12T08:56:57;2.88;;;1.42;;
63555;SDS011;49700;48.072;7.800;2023-04-12T08:59:26;3.25;;;1.85;;
63555;SDS011;49700;48.072;7.800;2023-04-12T09:01:52;2.65;;;1.70;;
63555;SDS011;49700;48.072;7.800;2023-04-12T09:04:18;2.47;;;1.58;;
63555;SDS011;49700;48.072;7.800;2023-04-12T09:06:44;4.87;;;2.53;;
63555;SDS011;49700;48.072;7.800;2023-04-12T09:09:09;4.43;;;2.53;;
63555;SDS011;49700;48.072;7.800;2023-04-12T09:11:35;3.10;;;1.97;;
63555;SDS011;49700;48.072;7.800;2023-04-12T09:14:00;1.63;;;1.53;;
63555;SDS011;49700;48.072;7.800;2023-04-12T09:16:32;2.50;;;1.80;;
63555;SDS011;49700;48.072;7.800;2023-04-12T09:18:59;4.13;;;2.60;;
63555;SDS011;49700;48.072;7.800;2023-04-12T09:21:26;5.40;;;1.65;;
63555;SDS011;49700;48.072;7.800;2023-04-12T09:24:02;4.47;;;1.90;;
63555;SDS011;49700;48.072;7.800;2023-04-12T09:26:37;3.20;;;2.10;;
63555;SDS011;49700;48.072;7.800;2023-04-12T09:29:03;2.67;;;1.90;;
63555;SDS011;49700;48.072;7.800;2023-04-12T09:31:29;1.90;;;1.57;;
63555;SDS011;49700;48.072;7.800;2023-04-12T09:34:05;4.45;;;1.70;;
63555;SDS011;49700;48.072;7.800;2023-04-12T09:36:40;5.70;;;1.73;;
63555;SDS011;49700;48.072;7.800;2023-04-12T09:39:05;2.97;;;2.22;;
63555;SDS011;49700;48.072;7.800;2023-04-12T09:41:32;2.95;;;2.10;;
63555;SDS011;49700;48.072;7.800;2023-04-12T09:43:58;3.20;;;2.07;;
63555;SDS011;49700;48.072;7.800;2023-04-12T09:46:24;4.38;;;2.42;;
63555;SDS011;49700;48.072;7.800;2023-04-12T09:48:53;4.18;;;2.80;;
63555;SDS011;49700;48.072;7.800;2023-04-12T09:51:26;2.13;;;2.00;;
63555;SDS011;49700;48.072;7.800;2023-04-12T09:54:00;5.22;;;2.50;;
63555;SDS011;49700;48.072;7.800;2023-04-12T09:56:28;2.10;;;1.90;;
63555;SDS011;49700;48.072;7.800;2023-04-12T09:58:59;3.28;;;2.17;;
63555;SDS011;49700;48.072;7.800;2023-04-12T10:01:28;3.40;;;2.58;;
63555;SDS011;49700;48.072;7.800;2023-04-12T10:03:59;5.32;;;2.80;;
63555;SDS011;49700;48.072;7.800;2023-04-12T10:06:25;3.78;;;2.47;;
63555;SDS011;49700;48.072;7.800;2023-04-12T10:08:51;6.07;;;2.40;;
63555;SDS011;49700;48.072;7.800;2023-04-12T10:11:18;2.10;;;1.90;;
63555;SDS011;49700;48.072;7.800;2023-04-12T10:13:44;5.13;;;2.20;;
63555;SDS011;49700;48.072;7.800;2023-04-12T10:16:09;4.30;;;1.93;;
63555;SDS011;49700;48.072;7.800;2023-04-12T10:18:37;3.92;;;2.00;;
63555;SDS011;49700;48.072;7.800;2023-04-12T10:21:03;4.13;;;2.20;;
63555;SDS011;49700;48.072;7.800;2023-04-12T10:23:32;3.85;;;2.45;;
63555;SDS011;49700;48.072;7.800;2023-04-12T10:25:59;3.72;;;2.50;;
63555;SDS011;49700;48.072;7.800;2023-04-12T10:28:28;3.10;;;2.05;;
63555;SDS011;49700;48.072;7.800;2023-04-12T10:30:57;3.07;;;2.63;;
63555;SDS011;49700;48.072;7.800;2023-04-12T10:33:26;4.30;;;2.70;;
63555;SDS011;49700;48.072;7.800;2023-04-12T10:38:17;2.63;;;2.13;;
63555;SDS011;49700;48.072;7.800;2023-04-12T10:43:47;3.95;;;2.53;;
63555;SDS011;49700;48.072;7.800;2023-04-12T10:49:13;4.00;;;2.20;;
63555;SDS011;49700;48.072;7.800;2023-04-12T10:52:13;2.25;;;1.35;;
63555;SDS011;49700;48.072;7.800;2023-04-12T10:54:38;2.40;;;1.58;;
63555;SDS011;49700;48.072;7.800;2023-04-12T10:57:05;5.32;;;1.90;;
63555;SDS011;49700;48.072;7.800;2023-04-12T10:59:55;3.67;;;1.92;;
63555;SDS011;49700;48.072;7.800;2023-04-12T11:02:23;2.50;;;2.13;;
63555;SDS011;49700;48.072;7.800;2023-04-12T11:05:07;4.20;;;1.95;;
63555;SDS011;49700;48.072;7.800;2023-04-12T11:07:47;2.15;;;1.38;;
63555;SDS011;49700;48.072;7.800;2023-04-12T11:10:37;2.70;;;1.60;;
63555;SDS011;49700;48.072;7.800;2023-04-12T11:13:06;3.07;;;1.63;;
63555;SDS011;49700;48.072;7.800;2023-04-12T11:15:33;3.75;;;1.42;;
63555;SDS011;49700;48.072;7.800;2023-04-12T11:17:58;3.00;;;2.80;;
63555;SDS011;49700;48.072;7.800;2023-04-12T11:20:25;1.55;;;1.45;;
63555;SDS011;49700;48.072;7.800;2023-04-12T11:22:57;3.08;;;1.45;;
63555;SDS011;49700;48.072;7.800;2023-04-12T11:25:24;2.45;;;1.77;;
63555;SDS011;49700;48.072;7.800;2023-04-12T11:27:49;5.27;;;2.07;;
63555;SDS011;49700;48.072;7.800;2023-04-12T11:30:16;1.90;;;1.10;;
63555;SDS011;49700;48.072;7.800;2023-04-12T11:32:44;2.28;;;2.13;;
63555;SDS011;49700;48.072;7.800;2023-04-12T11:35:09;1.15;;;1.02;;
63555;SDS011;49700;48.072;7.800;2023-04-12T11:37:36;1.95;;;1.65;;
63555;SDS011;49700;48.072;7.800;2023-04-12T11:40:03;2.05;;;1.85;;
63555;SDS011;49700;48.072;7.800;2023-04-12T11:42:33;3.13;;;1.60;;
63555;SDS011;49700;48.072;7.800;2023-04-12T11:44:59;2.00;;;1.73;;
63555;SDS011;49700;48.072;7.800;2023-04-12T11:47:24;1.17;;;1.00;;
63555;SDS011;49700;48.072;7.800;2023-04-12T11:49:54;2.33;;;1.40;;
63555;SDS011;49700;48.072;7.800;2023-04-12T11:52:22;1.40;;;1.27;;
63555;SDS011;49700;48.072;7.800;2023-04-12T11:54:55;3.05;;;1.60;;
63555;SDS011;49700;48.072;7.800;2023-04-12T11:57:23;4.10;;;1.50;;
63555;SDS011;49700;48.072;7.800;2023-04-12T11:59:49;1.30;;;1.20;;
63555;SDS011;49700;48.072;7.800;2023-04-12T12:02:15;1.58;;;1.42;;
63555;SDS011;49700;48.072;7.800;2023-04-12T12:04:43;3.28;;;2.20;;
63555;SDS011;49700;48.072;7.800;2023-04-12T12:07:11;3.40;;;2.10;;
63555;SDS011;49700;48.072;7.800;2023-04-12T12:09:37;3.40;;;1.80;;
63555;SDS011;49700;48.072;7.800;2023-04-12T12:12:04;2.70;;;1.50;;
63555;SDS011;49700;48.072;7.800;2023-04-12T12:14:32;2.73;;;2.00;;
63555;SDS011;49700;48.072;7.800;2023-04-12T12:16:59;1.40;;;1.30;;
63555;SDS011;49700;48.072;7.800;2023-04-12T12:19:32;1.43;;;1.00;;
63555;SDS011;49700;48.072;7.800;2023-04-12T12:22:19;2.40;;;2.20;;
63555;SDS011;49700;48.072;7.800;2023-04-12T12:24:55;2.40;;;1.50;;
63555;SDS011;49700;48.072;7.800;2023-04-12T12:27:35;1.65;;;1.00;;
63555;SDS011;49700;48.072;7.800;2023-04-12T12:30:02;1.43;;;1.00;;
63555;SDS011;49700;48.072;7.800;2023-04-12T12:32:35;2.05;;;1.17;;
63555;SDS011;49700;48.072;7.800;2023-04-12T12:35:06;1.23;;;1.05;;
63555;SDS011;49700;48.072;7.800;2023-04-12T12:37:47;2.38;;;1.00;;
63555;SDS011;49700;48.072;7.800;2023-04-12T12:40:15;1.95;;;1.05;;
63555;SDS011;49700;48.072;7.800;2023-04-12T12:42:49;1.63;;;1.52;;
63555;SDS011;49700;48.072;7.800;2023-04-12T12:45:19;2.70;;;1.10;;
63555;SDS011;49700;48.072;7.800;2023-04-12T12:47:46;2.38;;;1.30;;
63555;SDS011;49700;48.072;7.800;2023-04-12T12:50:20;1.20;;;0.90;;
63555;SDS011;49700;48.072;7.800;2023-04-12T12:52:48;1.43;;;1.13;;
63555;SDS011;49700;48.072;7.800;2023-04-12T12:55:14;1.20;;;1.10;;
63555;SDS011;49700;48.072;7.800;2023-04-12T12:57:44;1.93;;;1.20;;
63555;SDS011;49700;48.072;7.800;2023-04-12T13:00:13;1.83;;;1.30;;
63555;SDS011;49700;48.072;7.800;2023-04-12T13:02:43;1.83;;;1.20;;
63555;SDS011;49700;48.072;7.800;2023-04-12T13:05:09;2.20;;;1.80;;
63555;SDS011;49700;48.072;7.800;2023-04-12T13:07:38;1.30;;;1.00;;
63555;SDS011;49700;48.072;7.800;2023-04-12T13:10:04;3.77;;;1.13;;
63555;SDS011;49700;48.072;7.800;2023-04-12T13:12:31;1.70;;;1.00;;
63555;SDS011;49700;48.072;7.800;2023-04-12T13:14:57;1.07;;;0.93;;
63555;SDS011;49700;48.072;7.800;2023-04-12T13:17:24;1.60;;;1.10;;
63555;SDS011;49700;48.072;7.800;2023-04-12T13:19:50;0.83;;;0.80;;
63555;SDS011;49700;48.072;7.800;2023-04-12T13:22:16;1.30;;;1.17;;
63555;SDS011;49700;48.072;7.800;2023-04-12T13:24:42;1.53;;;1.10;;
63555;SDS011;49700;48.072;7.800;2023-04-12T13:27:08;1.73;;;1.30;;
63555;SDS011;49700;48.072;7.800;2023-04-12T13:29:33;1.10;;;0.80;;
63555;SDS011;49700;48.072;7.800;2023-04-12T13:31:59;1.67;;;1.07;;
63555;SDS011;49700;48.072;7.800;2023-04-12T13:34:25;2.20;;;1.03;;
63555;SDS011;49700;48.072;7.800;2023-04-12T13:36:50;1.17;;;0.90;;
63555;SDS011;49700;48.072;7.800;2023-04-12T13:39:16;1.20;;;1.03;;
63555;SDS011;49700;48.072;7.800;2023-04-12T13:41:41;0.90;;;0.77;;
63555;SDS011;49700;48.072;7.800;2023-04-12T13:44:07;0.90;;;0.90;;
63555;SDS011;49700;48.072;7.800;2023-04-12T13:46:32;2.17;;;0.97;;
63555;SDS011;49700;48.072;7.800;2023-04-12T13:48:58;3.70;;;1.10;;
63555;SDS011;49700;48.072;7.800;2023-04-12T13:51:23;1.70;;;1.07;;
63555;SDS011;49700;48.072;7.800;2023-04-12T13:53:50;1.33;;;1.23;;
63555;SDS011;49700;48.072;7.800;2023-04-12T13:56:16;1.20;;;1.10;;
63555;SDS011;49700;48.072;7.800;2023-04-12T13:58:42;2.20;;;1.40;;
63555;SDS011;49700;48.072;7.800;2023-04-12T14:01:07;1.10;;;0.90;;
63555;SDS011;49700;48.072;7.800;2023-04-12T14:03:34;1.10;;;0.90;;
63555;SDS011;49700;48.072;7.800;2023-04-12T14:05:59;1.20;;;0.90;;
63555;SDS011;49700;48.072;7.800;2023-04-12T14:08:26;1.85;;;1.30;;
63555;SDS011;49700;48.072;7.800;2023-04-12T14:10:52;2.90;;;1.23;;
63555;SDS011;49700;48.072;7.800;2023-04-12T14:13:20;1.20;;;1.10;;
63555;SDS011;49700;48.072;7.800;2023-04-12T14:15:46;1.00;;;0.90;;
63555;SDS011;49700;48.072;7.800;2023-04-12T14:18:11;1.30;;;1.07;;
63555;SDS011;49700;48.072;7.800;2023-04-12T14:20:36;1.50;;;1.10;;
63555;SDS011;49700;48.072;7.800;2023-04-12T14:23:02;0.80;;;0.70;;
63555;SDS011;49700;48.072;7.800;2023-04-12T14:25:27;5.00;;;2.33;;
63555;SDS011;49700;48.072;7.800;2023-04-12T14:27:53;1.17;;;0.80;;
63555;SDS011;49700;48.072;7.800;2023-04-12T14:30:18;2.90;;;1.07;;
63555;SDS011;49700;48.072;7.800;2023-04-12T14:32:44;1.40;;;1.30;;
63555;SDS011;49700;48.072;7.800;2023-04-12T14:35:10;2.00;;;1.40;;
63555;SDS011;49700;48.072;7.800;2023-04-12T14:37:35;1.83;;;0.93;;
63555;SDS011;49700;48.072;7.800;2023-04-12T14:40:01;2.67;;;1.13;;
63555;SDS011;49700;48.072;7.800;2023-04-12T14:42:26;0.90;;;0.70;;
63555;SDS011;49700;48.072;7.800;2023-04-12T14:44:52;1.50;;;0.90;;
63555;SDS011;49700;48.072;7.800;2023-04-12T14:47:17;1.47;;;0.93;;
63555;SDS011;49700;48.072;7.800;2023-04-12T14:49:43;1.13;;;0.73;;
63555;SDS011;49700;48.072;7.800;2023-04-12T14:52:08;1.27;;;0.97;;
63555;SDS011;49700;48.072;7.800;2023-04-12T14:54:33;1.27;;;0.90;;
63555;SDS011;49700;48.072;7.800;2023-04-12T14:56:59;1.03;;;0.77;;
63555;SDS011;49700;48.072;7.800;2023-04-12T14:59:24;1.10;;;0.90;;
63555;SDS011;49700;48.072;7.800;2023-04-12T15:01:51;2.25;;;0.80;;
63555;SDS011;49700;48.072;7.800;2023-04-12T15:04:17;0.83;;;0.80;;
63555;SDS011;49700;48.072;7.800;2023-04-12T15:06:42;1.20;;;1.00;;
63555;SDS011;49700;48.072;7.800;2023-04-12T15:09:09;2.00;;;1.30;;
63555;SDS011;49700;48.072;7.800;2023-04-12T15:11:35;2.50;;;1.63;;